Time;durP1;ratioP1;P1;durP2;ratioP2;P2;SDS_P1;SDS_P2;PMS_P1;PMS_P2;Temp;Humidity;BMP_temperature;BMP_pressure;BME280_temperature;BME280_humidity;BME280_pressure;Samples;Min_cycle;Max_cycle;Signal;HPM_P1;HPM_P2
2023/03/11 00:00:24;;;;;;;0.10;0.10;;;6.20;99.90;;;;;;5104056;28;20104;-76
2023/03/11 00:02:54;;;;;;;0.98;0.95;;;6.70;99.90;;;;;;5104938;28;20028;-76
2023/03/11 00:05:35;;;;;;;0.00;0.00;;;6.20;99.90;;;;;;5090640;28;20236;-76
2023/03/11 00:08:01;;;;;;;0.52;0.52;;;6.20;99.90;;;;;;5110728;28;20081;-75
2023/03/11 00:10:29;;;;;;;0.00;0.00;;;6.20;99.90;;;;;;5110155;28;20019;-76
2023/03/11 00:12:55;;;;;;;0.10;0.10;;;6.10;99.90;;;;;;5106741;28;20406;-76
2023/03/11 00:15:21;;;;;;;0.03;0.03;;;6.10;99.90;;;;;;5091227;28;20055;-75
2023/03/11 00:17:47;;;;;;;0.03;0.03;;;6.20;99.90;;;;;;5109710;28;20104;-76
2023/03/11 00:20:21;;;;;;;0.00;0.00;;;6.20;99.90;;;;;;5111029;28;20545;-75
2023/03/11 00:22:47;;;;;;;0.10;0.10;;;6.20;99.90;;;;;;5112265;28;20047;-75
2023/03/11 00:25:13;;;;;;;0.00;0.00;;;6.20;99.90;;;;;;5113275;28;20111;-76
2023/03/11 00:27:39;;;;;;;0.10;0.10;;;6.20;99.90;;;;;;5113578;28;20403;-76
2023/03/11 00:30:16;;;;;;;1.23;1.23;;;6.10;99.90;;;;;;5117676;28;20055;-76
2023/03/11 00:32:43;;;;;;;0.10;0.10;;;6.20;99.90;;;;;;5105338;28;20038;-76
2023/03/11 00:35:15;;;;;;;0.10;0.10;;;6.20;99.90;;;;;;5088668;28;20036;-76
2023/03/11 00:37:41;;;;;;;0.05;0.05;;;6.20;99.90;;;;;;5110315;28;20030;-76
2023/03/11 00:40:12;;;;;;;0.10;0.10;;;6.20;99.90;;;;;;5109290;28;20020;-77
2023/03/11 00:42:38;;;;;;;0.17;0.17;;;6.10;99.90;;;;;;5112465;28;20084;-77
2023/03/11 00:45:04;;;;;;;0.20;0.20;;;6.10;99.90;;;;;;5107747;28;20472;-76
2023/03/11 00:47:29;;;;;;;0.00;0.00;;;6.10;99.90;;;;;;5109757;28;20034;-76
2023/03/11 00:49:55;;;;;;;0.10;0.10;;;6.10;99.90;;;;;;5110332;28;20510;-76
2023/03/11 00:52:21;;;;;;;0.10;0.10;;;5.90;99.90;;;;;;5111358;28;20076;-76
2023/03/11 00:54:49;;;;;;;0.10;0.10;;;6.00;99.90;;;;;;5111514;28;20019;-76
2023/03/11 00:57:15;;;;;;;2.35;2.25;;;6.00;99.90;;;;;;5110262;28;20016;-76
2023/03/11 00:59:40;;;;;;;0.10;0.10;;;5.90;99.90;;;;;;5112250;28;20016;-76
2023/03/11 01:02:06;;;;;;;0.10;0.10;;;5.90;99.90;;;;;;5110568;28;20093;-75
2023/03/11 01:04:32;;;;;;;0.00;0.00;;;5.80;99.90;;;;;;5090573;28;20089;-77
2023/03/11 01:07:01;;;;;;;0.10;0.10;;;5.80;99.90;;;;;;5089200;28;20059;-76
2023/03/11 01:09:27;;;;;;;0.10;0.10;;;;;;;;;;5088314;28;20034;-76
2023/03/11 01:11:53;;;;;;;0.10;0.10;;;7.70;99.90;;;;;;5107377;28;20065;-76
2023/03/11 01:14:19;;;;;;;0.10;0.10;;;5.70;99.90;;;;;;5106951;28;20016;-76
2023/03/11 01:16:55;;;;;;;0.00;0.00;;;5.70;99.90;;;;;;5106161;28;20059;-76
2023/03/11 01:19:21;;;;;;;0.10;0.10;;;5.70;99.90;;;;;;5106358;28;20023;-76
2023/03/11 01:21:47;;;;;;;0.10;0.10;;;5.60;99.90;;;;;;5106917;28;20020;-76
2023/03/11 01:24:13;;;;;;;0.10;0.10;;;5.50;99.90;;;;;;5106086;28;20024;-76
2023/03/11 01:26:38;;;;;;;0.00;0.00;;;5.50;99.90;;;;;;5105016;28;20131;-77
2023/03/11 01:29:04;;;;;;;0.00;0.00;;;5.50;99.90;;;;;;5085567;28;20015;-76
2023/03/11 01:31:30;;;;;;;0.00;0.00;;;3.60;99.90;;;;;;5104643;28;20102;-76
2023/03/11 01:33:56;;;;;;;0.10;0.10;;;5.40;99.90;;;;;;5104802;28;20016;-76
2023/03/11 01:36:23;;;;;;;0.00;0.00;;;5.40;99.90;;;;;;5107335;28;20016;-76
2023/03/11 01:38:49;;;;;;;0.00;0.00;;;5.40;99.90;;;;;;5106282;28;20050;-76
2023/03/11 01:41:15;;;;;;;0.00;0.00;;;;;;;;;;5107892;28;20015;-76
2023/03/11 01:43:50;;;;;;;0.00;0.00;;;5.40;99.90;;;;;;5108768;28;20058;-76
2023/03/11 01:46:18;;;;;;;0.00;0.00;;;5.40;99.90;;;;;;5107524;28;20036;-76
2023/03/11 01:48:52;;;;;;;0.10;0.10;;;5.40;99.90;;;;;;5108593;28;20026;-76
2023/03/11 01:51:27;;;;;;;0.10;0.10;;;5.20;99.90;;;;;;5107859;28;20084;-76
2023/03/11 01:53:58;;;;;;;0.00;0.00;;;5.30;99.90;;;;;;5106839;28;20016;-76
2023/03/11 01:56:24;;;;;;;0.00;0.00;;;5.30;99.90;;;;;;5106086;28;20103;-76
2023/03/11 01:58:53;;;;;;;0.08;0.08;;;5.20;99.90;;;;;;5106110;28;20036;-77
2023/03/11 02:01:20;;;;;;;0.00;0.00;;;5.20;99.90;;;;;;5107478;28;20027;-76
2023/03/11 02:03:47;;;;;;;0.10;0.10;;;5.10;99.90;;;;;;5106281;28;20020;-77
2023/03/11 02:06:19;;;;;;;0.00;0.00;;;1.40;99.90;;;;;;5108535;28;20043;-76
2023/03/11 02:08:45;;;;;;;0.00;0.00;;;;;;;;;;5105577;28;20016;-76
2023/03/11 02:11:20;;;;;;;0.00;0.00;;;5.00;99.90;;;;;;5107794;28;20536;-76
2023/03/11 02:13:46;;;;;;;0.00;0.00;;;;;;;;;;5109982;28;20387;-76
2023/03/11 02:16:13;;;;;;;0.00;0.00;;;;;;;;;;5107802;28;20052;-77
2023/03/11 02:18:39;;;;;;;0.00;0.00;;;;;;;;;;5108596;28;20387;-76
2023/03/11 02:21:28;;;;;;;0.00;0.00;;;5.00;99.90;;;;;;5109274;28;20511;-77
2023/03/11 02:24:00;;;;;;;0.10;0.10;;;4.90;99.90;;;;;;5105148;28;20027;-76
2023/03/11 02:26:49;;;;;;;0.00;0.00;;;4.90;99.90;;;;;;5105250;28;20509;-77
2023/03/11 02:29:15;;;;;;;0.10;0.10;;;4.90;99.90;;;;;;5104277;28;20272;-76
2023/03/11 02:31:42;;;;;;;0.10;0.10;;;5.00;99.90;;;;;;5107414;28;20043;-76
2023/03/11 02:34:16;;;;;;;0.03;0.03;;;5.00;99.90;;;;;;5089400;28;20029;-76
2023/03/11 02:36:42;;;;;;;0.03;0.03;;;5.00;99.90;;;;;;5088527;28;20047;-75
2023/03/11 02:39:09;;;;;;;0.00;0.00;;;5.00;99.90;;;;;;5109285;28;20028;-77
2023/03/11 02:41:46;;;;;;;0.10;0.10;;;5.00;99.90;;;;;;5105186;28;20023;-76
2023/03/11 02:44:14;;;;;;;0.00;0.00;;;5.10;99.90;;;;;;5104031;28;20023;-77
2023/03/11 02:46:42;;;;;;;0.20;0.20;;;4.90;99.90;;;;;;5102931;28;20530;-76
2023/03/11 02:49:08;;;;;;;0.03;0.03;;;5.10;99.90;;;;;;5103380;28;20015;-76
2023/03/11 02:51:35;;;;;;;0.52;0.52;;;5.00;99.90;;;;;;5104063;28;20254;-76
2023/03/11 02:54:04;;;;;;;0.10;0.10;;;5.10;99.90;;;;;;5104340;28;20023;-76
2023/03/11 02:56:30;;;;;;;0.00;0.00;;;5.20;99.90;;;;;;5104856;28;20019;-76
2023/03/11 02:58:56;;;;;;;0.10;0.10;;;5.10;99.90;;;;;;5104037;28;20034;-77
2023/03/11 03:01:24;;;;;;;0.20;0.20;;;5.10;99.90;;;;;;5104537;28;20020;-76
2023/03/11 03:03:50;;;;;;;0.00;0.00;;;5.10;99.90;;;;;;5104231;28;20015;-76
2023/03/11 03:06:16;;;;;;;0.00;0.00;;;5.10;99.90;;;;;;5104624;28;20047;-76
2023/03/11 03:08:42;;;;;;;0.10;0.10;;;5.20;99.90;;;;;;5106788;28;20222;-75
2023/03/11 03:11:07;;;;;;;0.00;0.00;;;5.10;99.90;;;;;;5106198;28;20027;-76
2023/03/11 03:13:33;;;;;;;0.00;0.00;;;5.10;99.90;;;;;;5106811;28;20737;-76
2023/03/11 03:15:59;;;;;;;0.10;0.10;;;5.10;99.90;;;;;;5107513;28;20119;-76
2023/03/11 03:18:25;;;;;;;0.00;0.00;;;5.10;99.90;;;;;;5106559;28;20024;-76
2023/03/11 03:20:51;;;;;;;0.00;0.00;;;5.10;99.90;;;;;;5105473;28;20027;-75
2023/03/11 03:23:18;;;;;;;0.00;0.00;;;;;;;;;;5108995;28;20028;-76
2023/03/11 03:25:45;;;;;;;0.10;0.10;;;5.10;99.90;;;;;;5107322;28;20058;-76
2023/03/11 03:28:11;;;;;;;0.00;0.00;;;5.10;99.90;;;;;;5106998;28;20133;-76
2023/03/11 03:30:40;;;;;;;0.00;0.00;;;5.40;99.90;;;;;;5108790;28;20084;-76
2023/03/11 03:33:06;;;;;;;1.48;1.48;;;;;;;;;;5107661;28;20023;-76
2023/03/11 03:35:33;;;;;;;0.10;0.10;;;5.20;99.90;;;;;;5088711;28;20015;-76
2023/03/11 03:38:00;;;;;;;0.00;0.00;;;5.30;99.90;;;;;;5108738;28;20023;-76
2023/03/11 03:40:26;;;;;;;0.10;0.10;;;;;;;;;;5107040;28;20016;-75
2023/03/11 03:42:52;;;;;;;0.10;0.10;;;;;;;;;;5086308;28;20030;-77
2023/03/11 03:45:18;;;;;;;0.00;0.00;;;5.40;99.90;;;;;;5103851;28;20490;-76
2023/03/11 03:47:44;;;;;;;0.10;0.10;;;5.10;99.90;;;;;;5088156;28;20059;-76
2023/03/11 03:50:11;;;;;;;0.00;0.00;;;5.40;99.90;;;;;;5105722;28;20020;-76
2023/03/11 03:52:37;;;;;;;0.00;0.00;;;5.50;99.90;;;;;;5104613;28;20036;-77
2023/03/11 03:55:05;;;;;;;0.10;0.10;;;5.70;99.90;;;;;;5087996;28;20073;-76
2023/03/11 03:57:31;;;;;;;0.00;0.00;;;;;;;;;;5052236;28;20152;-76
2023/03/11 03:59:56;;;;;;;0.20;0.20;;;5.50;99.90;;;;;;5103098;28;20023;-76
2023/03/11 04:02:22;;;;;;;0.10;0.10;;;5.50;99.90;;;;;;5102047;28;20051;-76
2023/03/11 04:04:48;;;;;;;0.10;0.10;;;;;;;;;;5102111;28;20085;-76
2023/03/11 04:07:15;;;;;;;1.17;1.17;;;;;;;;;;5102255;28;20255;-75
2023/03/11 04:09:42;;;;;;;0.00;0.00;;;5.60;99.90;;;;;;5102683;28;20228;-76
2023/03/11 04:12:13;;;;;;;0.10;0.10;;;5.60;99.90;;;;;;5102107;28;20031;-76
2023/03/11 04:14:40;;;;;;;0.10;0.10;;;;;;;;;;5084286;28;20095;-76
2023/03/11 04:17:05;;;;;;;0.00;0.00;;;3.00;99.90;;;;;;5102232;28;20032;-76
2023/03/11 04:19:31;;;;;;;0.00;0.00;;;5.40;99.90;;;;;;5103366;28;20024;-76
2023/03/11 04:21:58;;;;;;;0.10;0.10;;;5.60;99.90;;;;;;5104368;28;20024;-76
2023/03/11 04:24:23;;;;;;;0.10;0.10;;;5.60;99.90;;;;;;5087376;28;20076;-76
2023/03/11 04:26:49;;;;;;;0.10;0.10;;;5.70;99.90;;;;;;5103905;28;20027;-77
2023/03/11 04:29:18;;;;;;;1.27;1.27;;;5.70;99.90;;;;;;5106015;28;20041;-75
2023/03/11 04:31:44;;;;;;;3.70;3.60;;;5.70;99.90;;;;;;5108661;28;20035;-76
2023/03/11 04:34:09;;;;;;;0.10;0.10;;;5.70;99.90;;;;;;5111028;28;20020;-76
2023/03/11 04:36:35;;;;;;;0.10;0.10;;;5.70;99.90;;;;;;5110368;28;20054;-76
2023/03/11 04:39:01;;;;;;;0.10;0.10;;;5.70;99.90;;;;;;5110415;28;20016;-77
2023/03/11 04:41:27;;;;;;;0.10;0.10;;;5.70;99.90;;;;;;5108569;28;20528;-76
2023/03/11 04:43:53;;;;;;;0.10;0.10;;;;;;;;;;5105179;28;20557;-76
2023/03/11 04:46:19;;;;;;;0.28;0.28;;;5.60;99.90;;;;;;5107044;28;20118;-76
2023/03/11 04:48:45;;;;;;;0.10;0.10;;;;;;;;;;5107154;28;20054;-75
2023/03/11 04:51:11;;;;;;;0.05;0.05;;;;;;;;;;5109793;28;20038;-77
2023/03/11 04:53:37;;;;;;;0.00;0.00;;;;;;;;;;5110817;28;20239;-76
2023/03/11 04:56:09;;;;;;;9.13;7.22;;;5.50;99.90;;;;;;5111603;28;20027;-76
2023/03/11 04:58:35;;;;;;;0.10;0.10;;;5.60;99.90;;;;;;5111315;28;20019;-76
2023/03/11 05:01:00;;;;;;;0.03;0.03;;;5.60;99.90;;;;;;5108114;28;20027;-76
2023/03/11 05:03:27;;;;;;;0.00;0.00;;;5.60;99.90;;;;;;5107161;28;20324;-76
2023/03/11 05:05:55;;;;;;;0.00;0.00;;;;;;;;;;5107343;28;20593;-76
2023/03/11 05:08:22;;;;;;;0.10;0.10;;;5.50;99.90;;;;;;5108044;28;20016;-77
2023/03/11 05:10:48;;;;;;;0.05;0.05;;;5.50;99.90;;;;;;5071079;28;20573;-76
2023/03/11 05:13:14;;;;;;;0.00;0.00;;;5.50;99.90;;;;;;5107101;28;20055;-77
2023/03/11 05:15:46;;;;;;;0.10;0.10;;;7.00;99.90;;;;;;5105778;28;20038;-76
2023/03/11 05:18:12;;;;;;;0.00;0.00;;;5.60;99.90;;;;;;5107325;28;20020;-76
2023/03/11 05:20:38;;;;;;;0.00;0.00;;;5.60;99.90;;;;;;5106900;28;20559;-76
2023/03/11 05:23:03;;;;;;;0.10;0.10;;;5.50;99.90;;;;;;5106335;28;20042;-76
2023/03/11 05:25:30;;;;;;;0.00;0.00;;;5.50;99.90;;;;;;5105833;28;20035;-76
2023/03/11 05:27:56;;;;;;;0.00;0.00;;;5.60;99.90;;;;;;5104450;28;20051;-76
2023/03/11 05:30:21;;;;;;;0.05;0.05;;;5.50;99.90;;;;;;5105071;28;20319;-76
2023/03/11 05:32:48;;;;;;;0.00;0.00;;;5.50;99.90;;;;;;5105245;28;20027;-76
2023/03/11 05:35:14;;;;;;;0.10;0.10;;;;;;;;;;5086926;28;20023;-76
2023/03/11 05:37:39;;;;;;;0.10;0.10;;;5.40;99.90;;;;;;5105038;28;20020;-76
2023/03/11 05:40:10;;;;;;;0.20;0.20;;;5.40;99.90;;;;;;5105156;28;20687;-76
2023/03/11 05:42:35;;;;;;;0.00;0.00;;;5.50;99.90;;;;;;5087818;28;20027;-76
2023/03/11 05:45:01;;;;;;;0.00;0.00;;;5.50;99.90;;;;;;5105075;28;20040;-76
2023/03/11 05:47:27;;;;;;;0.00;0.00;;;;;;;;;;5105550;28;20020;-76
2023/03/11 05:49:53;;;;;;;0.10;0.10;;;5.70;99.90;;;;;;5106085;28;20092;-76
2023/03/11 05:52:19;;;;;;;0.03;0.03;;;;;;;;;;5105765;28;20087;-76
2023/03/11 05:54:49;;;;;;;0.10;0.10;;;5.90;99.90;;;;;;5104838;28;20011;-77
2023/03/11 05:57:15;;;;;;;0.05;0.05;;;;;;;;;;5105146;28;20315;-76
2023/03/11 05:59:41;;;;;;;0.10;0.10;;;;;;;;;;5105462;28;20095;-76
2023/03/11 06:02:07;;;;;;;0.00;0.00;;;6.00;99.90;;;;;;5103662;28;20217;-76
2023/03/11 06:04:37;;;;;;;0.00;0.00;;;6.00;99.90;;;;;;5103321;28;20023;-76
2023/03/11 06:07:03;;;;;;;0.10;0.10;;;5.90;99.90;;;;;;5103537;28;20370;-77
2023/03/11 06:09:30;;;;;;;0.10;0.10;;;;;;;;;;5086361;28;20024;-77
2023/03/11 06:11:56;;;;;;;3.03;2.92;;;;;;;;;;5104396;28;20054;-76
2023/03/11 06:14:22;;;;;;;0.00;0.00;;;6.10;99.90;;;;;;5108059;28;20233;-77
2023/03/11 06:16:48;;;;;;;0.00;0.00;;;6.40;99.90;;;;;;5107776;28;20023;-76
2023/03/11 06:19:14;;;;;;;0.00;0.00;;;;;;;;;;5104893;28;20367;-76
2023/03/11 06:21:40;;;;;;;0.10;0.10;;;6.30;99.90;;;;;;5087546;28;20032;-76
2023/03/11 06:24:07;;;;;;;0.10;0.10;;;6.50;99.90;;;;;;5106454;28;20034;-76
2023/03/11 06:26:34;;;;;;;0.05;0.05;;;6.30;99.90;;;;;;5108880;28;20057;-77
2023/03/11 06:29:00;;;;;;;0.00;0.00;;;;;;;;;;5090422;28;20034;-76
2023/03/11 06:31:28;;;;;;;0.00;0.00;;;6.50;99.90;;;;;;5108212;28;20049;-76
2023/03/11 06:33:55;;;;;;;107.82;100.53;;;6.20;99.90;;;;;;5089302;28;20027;-77
2023/03/11 06:36:21;;;;;;;0.10;0.10;;;6.70;99.90;;;;;;5109700;28;20099;-76
2023/03/11 06:38:50;;;;;;;0.08;0.08;;;6.90;99.90;;;;;;5107830;28;20394;-77
2023/03/11 06:41:16;;;;;;;0.10;0.10;;;6.70;99.90;;;;;;5109337;28;20023;-76
2023/03/11 06:43:42;;;;;;;0.10;0.10;;;6.90;99.90;;;;;;5091433;28;20032;-76
2023/03/11 06:46:11;;;;;;;0.13;0.13;;;7.00;99.90;;;;;;5106306;28;20052;-76
2023/03/11 06:48:37;;;;;;;0.10;0.10;;;7.00;99.90;;;;;;5106828;28;20019;-77
2023/03/11 06:51:05;;;;;;;0.10;0.10;;;7.00;99.90;;;;;;5109291;28;20023;-77
2023/03/11 06:53:32;;;;;;;0.20;0.20;;;7.00;99.90;;;;;;5109334;28;20409;-77
2023/03/11 06:56:01;;;;;;;0.10;0.10;;;7.10;99.90;;;;;;5106205;28;20093;-76
2023/03/11 06:58:30;;;;;;;0.10;0.10;;;7.10;99.90;;;;;;5104617;28;20050;-77
2023/03/11 07:01:17;;;;;;;0.10;0.10;;;7.30;99.90;;;;;;5087091;28;20023;-76
2023/03/11 07:03:47;;;;;;;0.10;0.10;;;7.40;99.90;;;;;;5106290;28;20016;-77
2023/03/11 07:06:24;;;;;;;0.10;0.10;;;7.40;99.90;;;;;;5105998;28;20396;-76
2023/03/11 07:08:52;;;;;;;0.10;0.10;;;7.60;99.90;;;;;;5105431;28;20049;-77
2023/03/11 07:11:24;;;;;;;0.00;0.00;;;7.70;99.90;;;;;;5108270;28;20137;-77
2023/03/11 07:13:51;;;;;;;0.10;0.10;;;7.80;99.90;;;;;;5109761;28;20046;-77
2023/03/11 07:16:24;;;;;;;0.13;0.13;;;7.80;99.90;;;;;;5110821;28;20020;-77
2023/03/11 07:18:51;;;;;;;0.10;0.10;;;7.90;99.90;;;;;;5092232;28;20104;-77
2023/03/11 07:21:19;;;;;;;0.10;0.10;;;8.10;99.90;;;;;;5110224;28;20081;-77
2023/03/11 07:23:46;;;;;;;0.10;0.10;;;8.20;99.90;;;;;;5103387;28;20035;-77
2023/03/11 07:26:14;;;;;;;0.20;0.20;;;8.30;99.90;;;;;;5084805;28;20028;-76
2023/03/11 07:28:40;;;;;;;0.10;0.10;;;8.40;99.90;;;;;;5100452;28;20024;-77
2023/03/11 07:31:08;;;;;;;0.10;0.10;;;9.10;99.90;;;;;;5101620;28;20045;-76
2023/03/11 07:33:37;;;;;;;1.17;1.17;;;8.60;99.90;;;;;;5101525;28;20059;-76
2023/03/11 07:36:09;;;;;;;0.10;0.10;;;8.70;99.90;;;;;;5099217;28;20127;-77
2023/03/11 07:38:35;;;;;;;0.52;0.52;;;8.80;99.90;;;;;;5083340;28;20114;-77
2023/03/11 07:41:01;;;;;;;0.10;0.10;;;9.00;99.90;;;;;;5102727;28;20027;-77
2023/03/11 07:43:27;;;;;;;0.10;0.10;;;9.10;99.90;;;;;;5105452;28;20463;-76
2023/03/11 07:46:08;;;;;;;0.35;0.35;;;9.10;99.90;;;;;;5107725;28;20063;-77
2023/03/11 07:48:36;;;;;;;0.20;0.20;;;10.70;99.90;;;;;;5103473;28;20070;-77
2023/03/11 07:51:05;;;;;;;0.30;0.30;;;9.30;99.90;;;;;;5084730;28;20522;-77
2023/03/11 07:53:31;;;;;;;0.20;0.20;;;11.00;99.90;;;;;;5102954;28;20061;-76
2023/03/11 07:56:08;;;;;;;2.15;2.05;;;9.60;99.90;;;;;;5101289;28;20702;-77
2023/03/11 07:58:35;;;;;;;1.02;1.02;;;9.70;99.90;;;;;;5107105;28;20016;-78
2023/03/11 08:01:08;;;;;;;0.20;0.20;;;9.90;99.90;;;;;;5107726;28;20597;-77
2023/03/11 08:03:34;;;;;;;0.20;0.20;;;10.40;99.90;;;;;;5090345;28;20039;-77
2023/03/11 08:06:00;;;;;;;0.38;0.38;;;10.50;99.90;;;;;;5089723;28;20306;-78
2023/03/11 08:08:28;;;;;;;0.10;0.10;;;10.20;99.90;;;;;;5109548;28;20047;-77
2023/03/11 08:10:54;;;;;;;0.10;0.10;;;10.30;99.90;;;;;;5092967;28;20019;-76
2023/03/11 08:13:27;;;;;;;0.20;0.20;;;10.70;99.90;;;;;;5093034;28;20035;-77
2023/03/11 08:15:52;;;;;;;0.20;0.20;;;8.00;99.90;;;;;;5113441;28;20028;-77
2023/03/11 08:18:19;;;;;;;0.20;0.20;;;;;;;;;;5109669;28;20042;-77
2023/03/11 08:20:44;;;;;;;0.20;0.20;;;10.70;99.90;;;;;;5090527;28;20142;-77
2023/03/11 08:23:10;;;;;;;0.20;0.20;;;11.20;99.90;;;;;;5103413;28;20077;-76
2023/03/11 08:25:40;;;;;;;0.20;0.20;;;10.70;99.90;;;;;;5108776;28;20032;-76
2023/03/11 08:28:08;;;;;;;0.10;0.10;;;10.80;99.90;;;;;;5109685;28;20023;-77
2023/03/11 08:30:34;;;;;;;0.20;0.20;;;10.90;99.90;;;;;;5105801;28;20076;-77
2023/03/11 08:33:00;;;;;;;0.30;0.30;;;9.80;99.90;;;;;;5110444;28;20024;-77
2023/03/11 08:35:27;;;;;;;0.20;0.20;;;10.70;99.90;;;;;;5110273;28;20618;-76
2023/03/11 08:37:53;;;;;;;0.20;0.20;;;8.80;99.90;;;;;;5071451;28;20038;-76
2023/03/11 08:40:22;;;;;;;1.05;1.05;;;11.50;99.90;;;;;;5086256;28;20020;-78
2023/03/11 08:42:48;;;;;;;1.17;1.10;;;11.70;99.90;;;;;;5103689;28;20020;-78
2023/03/11 08:45:14;;;;;;;0.10;0.10;;;11.90;99.90;;;;;;5085861;28;20107;-83
2023/03/11 08:47:41;;;;;;;3.20;2.65;;;12.00;99.90;;;;;;5104904;28;20223;-83
2023/03/11 08:50:12;;;;;;;3.22;3.13;;;12.20;99.90;;;;;;5100941;28;20070;-78
2023/03/11 08:52:38;;;;;;;0.10;0.10;;;12.30;99.90;;;;;;5102852;28;20024;-87
2023/03/11 08:55:05;;;;;;;0.40;0.40;;;12.30;99.90;;;;;;5103110;28;20030;-80
2023/03/11 08:57:31;;;;;;;2.53;2.42;;;11.80;99.90;;;;;;5102017;28;20248;-79
2023/03/11 08:59:57;;;;;;;0.20;0.20;;;12.30;99.90;;;;;;5102277;28;20027;-81
2023/03/11 09:02:24;;;;;;;0.35;0.35;;;12.30;99.90;;;;;;5099634;28;20217;-77
2023/03/11 09:04:50;;;;;;;0.47;0.47;;;12.20;99.90;;;;;;5100195;28;20051;-78
2023/03/11 09:07:16;;;;;;;0.30;0.30;;;12.50;99.90;;;;;;5100415;28;20172;-78
2023/03/11 09:09:42;;;;;;;0.43;0.43;;;12.50;99.90;;;;;;5101741;28;20230;-77
2023/03/11 09:12:12;;;;;;;0.20;0.20;;;12.30;99.90;;;;;;5102156;28;20281;-77
2023/03/11 09:14:42;;;;;;;0.95;0.95;;;12.30;99.90;;;;;;5083935;28;20035;-77
2023/03/11 09:17:09;;;;;;;0.20;0.20;;;12.20;99.90;;;;;;5101559;28;20490;-78
2023/03/11 09:19:35;;;;;;;0.10;0.10;;;12.60;99.90;;;;;;5082685;28;20274;-78
2023/03/11 09:22:01;;;;;;;0.30;0.30;;;12.50;99.90;;;;;;5101289;28;20320;-78
2023/03/11 09:24:27;;;;;;;0.47;0.47;;;12.70;99.90;;;;;;5102086;28;20104;-79
2023/03/11 09:26:53;;;;;;;0.30;0.30;;;12.60;99.90;;;;;;5100108;28;20058;-77
2023/03/11 09:29:19;;;;;;;0.28;0.28;;;12.80;99.90;;;;;;5100714;28;20024;-77
2023/03/11 09:31:45;;;;;;;0.10;0.10;;;;;;;;;;5101330;28;20023;-80
2023/03/11 09:34:14;;;;;;;0.10;0.10;;;13.00;99.90;;;;;;5101834;28;20020;-77
2023/03/11 09:36:41;;;;;;;0.35;0.35;;;13.20;99.90;;;;;;5101573;28;20651;-81
2023/03/11 09:39:07;;;;;;;0.20;0.20;;;13.70;99.90;;;;;;5101744;28;20028;-77
2023/03/11 09:41:55;;;;;;;0.22;0.22;;;13.30;99.90;;;;;;5100909;28;20535;-77
2023/03/11 09:44:59;;;;;;;0.13;0.13;;;13.20;99.90;;;;;;5099252;28;20039;-79
2023/03/11 09:47:31;;;;;;;0.10;0.10;;;12.80;99.90;;;;;;5076705;28;20040;-77
2023/03/11 09:50:19;;;;;;;0.20;0.20;;;12.80;99.90;;;;;;5101361;28;20050;-84
2023/03/11 09:53:08;;;;;;;0.20;0.20;;;12.90;99.90;;;;;;5082898;28;20030;-79
2023/03/11 09:55:43;;;;;;;0.20;0.20;;;12.80;99.90;;;;;;5020463;28;20053;-77
2023/03/11 09:58:35;;;;;;;0.10;0.10;;;13.00;99.90;;;;;;5019816;28;20040;-77
2023/03/11 10:01:03;;;;;;;0.20;0.20;;;12.90;99.90;;;;;;5007203;28;20026;-81
2023/03/11 10:03:35;;;;;;;0.28;0.28;;;13.00;99.90;;;;;;5006932;28;20786;-84
2023/03/11 10:06:25;;;;;;;0.20;0.20;;;13.00;99.90;;;;;;5020152;28;20555;-80
2023/03/11 10:09:12;;;;;;;0.10;0.10;;;13.60;99.90;;;;;;5003427;28;20017;-86
2023/03/11 10:11:49;;;;;;;0.68;0.68;;;13.20;99.90;;;;;;5001854;28;20021;-88
2023/03/11 10:14:36;;;;;;;1.35;1.35;;;13.10;99.90;;;;;;5019612;28;20042;-78
2023/03/11 10:17:25;;;;;;;0.20;0.20;;;13.20;99.90;;;;;;5019794;28;20034;-77
2023/03/11 10:20:03;;;;;;;0.10;0.10;;;13.30;99.90;;;;;;5020151;28;20073;-84
2023/03/11 10:23:01;;;;;;;2.15;2.05;;;13.60;99.90;;;;;;5020973;28;20037;-77
2023/03/11 10:25:51;;;;;;;0.20;0.20;;;13.50;99.90;;;;;;5003039;28;20064;-81
2023/03/11 10:28:20;;;;;;;0.10;0.10;;;13.50;99.90;;;;;;5006885;28;20104;-78
2023/03/11 10:31:22;;;;;;;0.40;0.40;;;13.80;99.90;;;;;;4987652;28;20597;-80
2023/03/11 10:33:54;;;;;;;0.10;0.10;;;13.50;99.90;;;;;;5082693;28;20034;-80
2023/03/11 10:36:27;;;;;;;0.20;0.20;;;13.50;99.90;;;;;;5088190;28;20215;-90
2023/03/11 10:38:54;;;;;;;0.10;0.10;;;13.20;99.90;;;;;;5085839;28;20028;-83
2023/03/11 10:41:40;;;;;;;0.20;0.20;;;13.30;99.90;;;;;;5105259;28;20038;-84
2023/03/11 10:44:14;;;;;;;0.13;0.13;;;13.30;99.90;;;;;;5101702;28;20043;-88
2023/03/11 10:46:40;;;;;;;0.20;0.20;;;13.20;99.90;;;;;;5083351;28;20430;-79
2023/03/11 10:49:14;;;;;;;0.17;0.17;;;13.30;99.90;;;;;;5102164;28;20024;-77
2023/03/11 10:51:45;;;;;;;0.10;0.10;;;13.80;99.90;;;;;;5085708;28;20020;-84
2023/03/11 10:54:31;;;;;;;0.20;0.20;;;13.20;99.90;;;;;;5090315;28;20087;-82
2023/03/11 10:56:59;;;;;;;0.20;0.20;;;13.20;99.90;;;;;;5092660;28;20188;-87
2023/03/11 10:59:55;;;;;;;21.27;2.97;;;13.20;99.90;;;;;;5112779;28;20022;-76
2023/03/11 11:02:37;;;;;;;0.20;0.20;;;13.40;99.90;;;;;;5096681;28;20581;-77
2023/03/11 11:05:26;;;;;;;0.20;0.20;;;13.30;99.90;;;;;;5114010;28;20016;-76
2023/03/11 11:08:03;;;;;;;0.20;0.20;;;13.20;99.90;;;;;;5100330;28;20124;-79
2023/03/11 11:10:30;;;;;;;0.20;0.20;;;13.30;99.90;;;;;;5100969;27;20423;-78
2023/03/11 11:13:00;;;;;;;0.10;0.10;;;13.50;99.90;;;;;;5100604;28;20394;-77
2023/03/11 11:15:31;;;;;;;0.10;0.10;;;13.50;99.90;;;;;;5083415;28;20112;-76
2023/03/11 11:18:20;;;;;;;0.20;0.20;;;13.60;99.90;;;;;;5103444;28;20578;-76
2023/03/11 11:21:05;;;;;;;0.10;0.10;;;13.60;99.90;;;;;;5102798;28;20039;-80
2023/03/11 11:23:37;;;;;;;0.10;0.10;;;15.60;99.90;;;;;;5098936;28;20023;-78
2023/03/11 11:26:07;;;;;;;0.20;0.20;;;13.80;99.90;;;;;;5098380;28;20575;-77
2023/03/11 11:28:34;;;;;;;0.88;0.82;;;13.70;99.90;;;;;;5099890;28;20055;-77
2023/03/11 11:31:03;;;;;;;0.20;0.20;;;14.00;99.90;;;;;;5099736;28;20133;-76
2023/03/11 11:34:20;;;;;;;0.20;0.20;;;13.70;99.90;;;;;;5084716;28;20271;-76
2023/03/11 11:36:45;;;;;;;0.17;0.17;;;13.90;99.90;;;;;;5103472;28;20384;-78
2023/03/11 11:39:17;;;;;;;0.10;0.10;;;13.40;99.90;;;;;;5103384;28;20035;-76
2023/03/11 11:41:45;;;;;;;0.20;0.20;;;13.30;99.90;;;;;;5105833;28;20015;-78
2023/03/11 11:44:18;;;;;;;0.20;0.20;;;13.20;99.90;;;;;;5107830;28;20036;-78
2023/03/11 11:47:01;;;;;;;0.85;0.85;;;13.30;99.90;;;;;;5107550;28;20706;-76
2023/03/11 11:49:30;;;;;;;0.13;0.13;;;12.90;99.90;;;;;;5105999;28;20024;-76
2023/03/11 11:52:14;;;;;;;0.20;0.20;;;12.80;99.90;;;;;;5107918;28;20055;-75
2023/03/11 11:54:55;;;;;;;0.20;0.20;;;13.10;99.90;;;;;;5106271;28;20296;-77
2023/03/11 11:57:23;;;;;;;0.20;0.20;;;13.30;99.90;;;;;;5104947;28;20160;-76
2023/03/11 11:59:48;;;;;;;0.10;0.10;;;12.90;99.90;;;;;;5112189;28;20023;-76
2023/03/11 12:02:59;;;;;;;0.20;0.20;;;12.80;99.90;;;;;;5110244;28;20252;-77
2023/03/11 12:05:31;;;;;;;0.57;0.57;;;12.80;99.90;;;;;;5077320;28;20027;-77
2023/03/11 12:08:08;;;;;;;0.50;0.50;;;12.70;99.90;;;;;;5106252;28;20121;-78
2023/03/11 12:10:37;;;;;;;1.08;1.02;;;12.70;99.90;;;;;;5112574;28;20643;-78
2023/03/11 12:13:22;;;;;;;0.35;0.35;;;9.10;99.90;;;;;;5116076;28;20073;-78
2023/03/11 12:16:04;;;;;;;0.20;0.20;;;12.80;99.90;;;;;;5114324;28;20727;-79
2023/03/11 12:18:59;;;;;;;0.20;0.20;;;12.50;99.90;;;;;;5114859;28;20066;-76
2023/03/11 12:22:10;;;;;;;0.38;0.38;;;12.40;99.90;;;;;;5081420;28;20122;-77
2023/03/11 12:25:24;;;;;;;0.13;0.13;;;12.60;99.90;;;;;;5031394;28;20041;-76
2023/03/11 12:28:14;;;;;;;0.10;0.10;;;12.10;99.90;;;;;;4929776;29;20038;-76
2023/03/11 12:30:52;;;;;;;5.40;5.15;;;12.00;99.90;;;;;;4927301;29;20549;-76
2023/03/11 12:33:38;;;;;;;0.43;0.43;;;12.00;99.90;;;;;;4926068;29;20051;-76
2023/03/11 12:36:06;;;;;;;4.57;4.38;;;11.80;99.90;;;;;;4928911;29;20040;-77
2023/03/11 12:38:39;;;;;;;0.25;0.25;;;11.70;99.90;;;;;;4928682;29;20028;-78
2023/03/11 12:41:25;;;;;;;0.20;0.20;;;11.50;99.90;;;;;;4912455;29;20086;-77
2023/03/11 12:44:21;;;;;;;0.20;0.20;;;11.10;99.90;;;;;;4911862;29;20199;-77
2023/03/11 12:47:15;;;;;;;0.30;0.30;;;11.00;99.90;;;;;;4927172;29;20071;-77
2023/03/11 12:49:44;;;;;;;0.10;0.10;;;10.50;99.90;;;;;;4926542;29;20675;-77
2023/03/11 12:52:12;;;;;;;0.20;0.20;;;10.60;99.90;;;;;;4909478;29;20032;-77
2023/03/11 12:55:09;;;;;;;0.20;0.20;;;10.50;99.90;;;;;;4911476;29;20043;-76
2023/03/11 12:58:04;;;;;;;0.20;0.20;;;10.30;99.90;;;;;;4928011;29;20420;-76
2023/03/11 13:00:59;;;;;;;0.10;0.10;;;10.20;99.90;;;;;;4919174;28;20142;-76
2023/03/11 13:03:44;;;;;;;0.10;0.10;;;10.20;99.90;;;;;;5019390;28;20026;-76
2023/03/11 13:06:54;;;;;;;0.10;0.10;;;10.00;99.90;;;;;;5107935;28;20039;-76
2023/03/11 13:09:23;;;;;;;0.10;0.10;;;9.40;99.90;;;;;;5027829;28;20060;-76
2023/03/11 13:11:50;;;;;;;0.10;0.10;;;8.50;99.90;;;;;;5033994;28;20707;-76
2023/03/11 13:14:45;;;;;;;0.10;0.10;;;8.50;99.90;;;;;;5033816;28;20220;-76
2023/03/11 13:17:29;;;;;;;0.10;0.10;;;7.90;99.90;;;;;;4971430;28;20041;-76
2023/03/11 13:19:57;;;;;;;0.00;0.00;;;6.80;99.90;;;;;;4970091;28;20034;-76
2023/03/11 13:23:03;;;;;;;0.10;0.10;;;8.20;99.90;;;;;;4970767;28;20035;-77